sensor_id;sensor_type;location;lat;lon;timestamp;P1;durP1;ratioP1;P2;durP2;ratioP2
12869;SDS011;6503;48.572;13.460;2024-02-14T00:01:06;10.10;;;5.80;;
12869;SDS011;6503;48.572;13.460;2024-02-14T00:03:34;11.03;;;5.57;;
12869;SDS011;6503;48.572;13.460;2024-02-14T00:06:03;8.90;;;5.23;;
12869;SDS011;6503;48.572;13.460;2024-02-14T00:08:30;12.45;;;6.57;;
12869;SDS011;6503;48.572;13.460;2024-02-14T00:10:59;11.23;;;6.13;;
12869;SDS011;6503;48.572;13.460;2024-02-14T00:13:27;10.90;;;5.93;;
12869;SDS011;6503;48.572;13.460;2024-02-14T00:15:54;9.53;;;6.00;;
12869;SDS011;6503;48.572;13.460;2024-02-14T00:18:22;9.90;;;5.83;;
12869;SDS011;6503;48.572;13.460;2024-02-14T00:20:49;8.53;;;5.70;;
12869;SDS011;6503;48.572;13.460;2024-02-14T00:23:17;10.47;;;5.60;;
12869;SDS011;6503;48.572;13.460;2024-02-14T00:25:44;8.10;;;5.30;;
12869;SDS011;6503;48.572;13.460;2024-02-14T00:28:13;12.40;;;5.93;;
12869;SDS011;6503;48.572;13.460;2024-02-14T00:30:40;7.15;;;5.63;;
12869;SDS011;6503;48.572;13.460;2024-02-14T00:33:07;9.63;;;5.20;;
12869;SDS011;6503;48.572;13.460;2024-02-14T00:35:34;8.50;;;4.60;;
12869;SDS011;6503;48.572;13.460;2024-02-14T00:38:02;8.47;;;4.67;;
12869;SDS011;6503;48.572;13.460;2024-02-14T00:40:29;8.80;;;4.87;;
12869;SDS011;6503;48.572;13.460;2024-02-14T00:42:57;12.13;;;5.73;;
12869;SDS011;6503;48.572;13.460;2024-02-14T00:45:26;10.27;;;5.63;;
12869;SDS011;6503;48.572;13.460;2024-02-14T00:47:59;10.52;;;5.97;;
12869;SDS011;6503;48.572;13.460;2024-02-14T00:50:26;9.97;;;6.20;;
12869;SDS011;6503;48.572;13.460;2024-02-14T00:52:54;11.67;;;5.83;;
12869;SDS011;6503;48.572;13.460;2024-02-14T00:55:21;11.17;;;5.43;;
12869;SDS011;6503;48.572;13.460;2024-02-14T00:57:48;13.67;;;6.83;;
12869;SDS011;6503;48.572;13.460;2024-02-14T01:00:16;11.53;;;6.03;;
12869;SDS011;6503;48.572;13.460;2024-02-14T01:02:45;11.77;;;6.17;;
12869;SDS011;6503;48.572;13.460;2024-02-14T01:05:12;8.38;;;5.57;;
12869;SDS011;6503;48.572;13.460;2024-02-14T01:07:39;11.27;;;5.67;;
12869;SDS011;6503;48.572;13.460;2024-02-14T01:10:08;10.40;;;5.50;;
12869;SDS011;6503;48.572;13.460;2024-02-14T01:15:03;11.43;;;6.20;;
12869;SDS011;6503;48.572;13.460;2024-02-14T01:17:30;12.97;;;5.63;;
12869;SDS011;6503;48.572;13.460;2024-02-14T01:20:00;13.07;;;6.33;;
12869;SDS011;6503;48.572;13.460;2024-02-14T01:22:27;13.10;;;6.43;;
12869;SDS011;6503;48.572;13.460;2024-02-14T01:24:55;11.37;;;6.10;;
12869;SDS011;6503;48.572;13.460;2024-02-14T01:27:23;9.10;;;6.20;;
12869;SDS011;6503;48.572;13.460;2024-02-14T01:29:51;8.97;;;6.00;;
12869;SDS011;6503;48.572;13.460;2024-02-14T01:32:19;10.68;;;6.30;;
12869;SDS011;6503;48.572;13.460;2024-02-14T01:34:47;10.73;;;6.17;;
12869;SDS011;6503;48.572;13.460;2024-02-14T01:37:16;9.70;;;5.67;;
12869;SDS011;6503;48.572;13.460;2024-02-14T01:39:43;8.98;;;5.45;;
12869;SDS011;6503;48.572;13.460;2024-02-14T01:42:10;10.37;;;5.57;;
12869;SDS011;6503;48.572;13.460;2024-02-14T01:44:38;10.93;;;6.03;;
12869;SDS011;6503;48.572;13.460;2024-02-14T01:47:05;7.93;;;5.10;;
12869;SDS011;6503;48.572;13.460;2024-02-14T01:49:32;7.80;;;5.20;;
12869;SDS011;6503;48.572;13.460;2024-02-14T01:52:01;10.43;;;5.32;;
12869;SDS011;6503;48.572;13.460;2024-02-14T01:54:31;9.87;;;5.77;;
12869;SDS011;6503;48.572;13.460;2024-02-14T01:56:58;9.02;;;5.53;;
12869;SDS011;6503;48.572;13.460;2024-02-14T01:59:25;9.40;;;5.70;;
12869;SDS011;6503;48.572;13.460;2024-02-14T02:01:53;9.03;;;5.60;;
12869;SDS011;6503;48.572;13.460;2024-02-14T02:04:20;7.37;;;4.63;;
12869;SDS011;6503;48.572;13.460;2024-02-14T02:06:48;8.93;;;4.73;;
12869;SDS011;6503;48.572;13.460;2024-02-14T02:09:16;8.40;;;4.47;;
12869;SDS011;6503;48.572;13.460;2024-02-14T02:11:47;7.20;;;4.50;;
12869;SDS011;6503;48.572;13.460;2024-02-14T02:14:15;7.87;;;4.60;;
12869;SDS011;6503;48.572;13.460;2024-02-14T02:16:43;7.63;;;4.40;;
12869;SDS011;6503;48.572;13.460;2024-02-14T02:19:12;6.93;;;4.65;;
12869;SDS011;6503;48.572;13.460;2024-02-14T02:21:41;9.32;;;4.82;;
12869;SDS011;6503;48.572;13.460;2024-02-14T02:24:10;9.60;;;5.07;;
12869;SDS011;6503;48.572;13.460;2024-02-14T02:26:38;8.95;;;5.82;;
12869;SDS011;6503;48.572;13.460;2024-02-14T02:29:05;8.70;;;4.77;;
12869;SDS011;6503;48.572;13.460;2024-02-14T02:31:32;11.33;;;5.70;;
12869;SDS011;6503;48.572;13.460;2024-02-14T02:34:00;10.27;;;5.63;;
12869;SDS011;6503;48.572;13.460;2024-02-14T02:36:27;7.60;;;4.37;;
12869;SDS011;6503;48.572;13.460;2024-02-14T02:38:56;8.18;;;5.45;;
12869;SDS011;6503;48.572;13.460;2024-02-14T02:41:26;7.63;;;4.60;;
12869;SDS011;6503;48.572;13.460;2024-02-14T02:43:54;11.32;;;5.75;;
12869;SDS011;6503;48.572;13.460;2024-02-14T02:46:21;8.43;;;5.30;;
12869;SDS011;6503;48.572;13.460;2024-02-14T02:48:50;8.40;;;5.70;;
12869;SDS011;6503;48.572;13.460;2024-02-14T02:53:47;9.37;;;4.93;;
12869;SDS011;6503;48.572;13.460;2024-02-14T02:56:14;9.33;;;5.47;;
12869;SDS011;6503;48.572;13.460;2024-02-14T02:58:43;8.37;;;4.73;;
12869;SDS011;6503;48.572;13.460;2024-02-14T03:01:11;7.37;;;5.00;;
12869;SDS011;6503;48.572;13.460;2024-02-14T03:03:39;11.10;;;5.67;;
12869;SDS011;6503;48.572;13.460;2024-02-14T03:06:06;9.50;;;5.40;;
12869;SDS011;6503;48.572;13.460;2024-02-14T03:08:34;8.93;;;5.07;;
12869;SDS011;6503;48.572;13.460;2024-02-14T03:11:03;8.50;;;5.20;;
12869;SDS011;6503;48.572;13.460;2024-02-14T03:13:31;11.53;;;5.33;;
12869;SDS011;6503;48.572;13.460;2024-02-14T03:16:02;8.60;;;5.65;;
12869;SDS011;6503;48.572;13.460;2024-02-14T03:18:29;8.35;;;5.25;;
12869;SDS011;6503;48.572;13.460;2024-02-14T03:20:57;9.63;;;4.67;;
12869;SDS011;6503;48.572;13.460;2024-02-14T03:23:26;8.77;;;4.50;;
12869;SDS011;6503;48.572;13.460;2024-02-14T03:25:53;7.17;;;5.07;;
12869;SDS011;6503;48.572;13.460;2024-02-14T03:28:21;10.10;;;4.83;;
12869;SDS011;6503;48.572;13.460;2024-02-14T03:30:48;8.73;;;5.50;;
12869;SDS011;6503;48.572;13.460;2024-02-14T03:33:17;7.70;;;4.83;;
12869;SDS011;6503;48.572;13.460;2024-02-14T03:35:45;9.18;;;4.80;;
12869;SDS011;6503;48.572;13.460;2024-02-14T03:38:23;7.23;;;4.47;;
12869;SDS011;6503;48.572;13.460;2024-02-14T03:40:51;8.23;;;4.73;;
12869;SDS011;6503;48.572;13.460;2024-02-14T03:43:19;10.53;;;5.70;;
12869;SDS011;6503;48.572;13.460;2024-02-14T03:45:48;8.93;;;4.87;;
12869;SDS011;6503;48.572;13.460;2024-02-14T03:48:18;8.13;;;4.87;;
12869;SDS011;6503;48.572;13.460;2024-02-14T03:50:47;10.23;;;5.87;;
12869;SDS011;6503;48.572;13.460;2024-02-14T03:53:15;9.77;;;5.90;;
12869;SDS011;6503;48.572;13.460;2024-02-14T03:55:42;9.90;;;5.63;;
12869;SDS011;6503;48.572;13.460;2024-02-14T03:58:10;10.13;;;5.37;;
12869;SDS011;6503;48.572;13.460;2024-02-14T04:00:45;11.48;;;4.35;;
12869;SDS011;6503;48.572;13.460;2024-02-14T04:03:13;10.33;;;4.63;;
12869;SDS011;6503;48.572;13.460;2024-02-14T04:05:42;7.60;;;3.57;;
12869;SDS011;6503;48.572;13.460;2024-02-14T04:08:09;6.65;;;3.65;;
12869;SDS011;6503;48.572;13.460;2024-02-14T04:10:37;5.63;;;4.00;;
12869;SDS011;6503;48.572;13.460;2024-02-14T04:13:04;6.60;;;4.00;;
12869;SDS011;6503;48.572;13.460;2024-02-14T04:15:32;8.00;;;4.40;;
12869;SDS011;6503;48.572;13.460;2024-02-14T04:17:59;7.60;;;4.43;;
12869;SDS011;6503;48.572;13.460;2024-02-14T04:20:27;6.93;;;4.28;;
12869;SDS011;6503;48.572;13.460;2024-02-14T04:22:57;7.20;;;4.07;;
12869;SDS011;6503;48.572;13.460;2024-02-14T04:25:24;9.23;;;4.53;;
12869;SDS011;6503;48.572;13.460;2024-02-14T04:27:52;10.87;;;3.90;;
12869;SDS011;6503;48.572;13.460;2024-02-14T04:30:21;6.47;;;4.03;;
12869;SDS011;6503;48.572;13.460;2024-02-14T04:32:49;8.33;;;4.23;;
12869;SDS011;6503;48.572;13.460;2024-02-14T04:35:17;7.50;;;4.97;;
12869;SDS011;6503;48.572;13.460;2024-02-14T04:37:44;10.57;;;5.63;;
12869;SDS011;6503;48.572;13.460;2024-02-14T04:40:15;10.73;;;5.40;;
12869;SDS011;6503;48.572;13.460;2024-02-14T04:45:10;7.73;;;4.70;;
12869;SDS011;6503;48.572;13.460;2024-02-14T04:47:38;8.07;;;5.13;;
12869;SDS011;6503;48.572;13.460;2024-02-14T04:50:05;8.87;;;4.93;;
12869;SDS011;6503;48.572;13.460;2024-02-14T04:52:33;8.77;;;4.83;;
12869;SDS011;6503;48.572;13.460;2024-02-14T04:55:00;8.23;;;4.97;;
12869;SDS011;6503;48.572;13.460;2024-02-14T04:57:30;10.38;;;5.30;;
12869;SDS011;6503;48.572;13.460;2024-02-14T05:00:00;6.23;;;4.60;;
12869;SDS011;6503;48.572;13.460;2024-02-14T05:02:29;8.10;;;4.73;;
12869;SDS011;6503;48.572;13.460;2024-02-14T05:04:57;9.80;;;4.73;;
12869;SDS011;6503;48.572;13.460;2024-02-14T05:07:24;6.90;;;5.00;;
12869;SDS011;6503;48.572;13.460;2024-02-14T05:09:52;7.23;;;4.50;;
12869;SDS011;6503;48.572;13.460;2024-02-14T05:12:21;7.53;;;5.23;;
12869;SDS011;6503;48.572;13.460;2024-02-14T05:14:50;7.07;;;4.47;;
12869;SDS011;6503;48.572;13.460;2024-02-14T05:19:45;11.43;;;5.10;;
12869;SDS011;6503;48.572;13.460;2024-02-14T05:22:12;9.53;;;4.70;;
12869;SDS011;6503;48.572;13.460;2024-02-14T05:24:39;6.83;;;4.90;;
12869;SDS011;6503;48.572;13.460;2024-02-14T05:27:07;6.63;;;4.37;;
12869;SDS011;6503;48.572;13.460;2024-02-14T05:29:34;9.97;;;4.80;;
12869;SDS011;6503;48.572;13.460;2024-02-14T05:32:03;11.70;;;5.33;;
12869;SDS011;6503;48.572;13.460;2024-02-14T05:34:31;7.78;;;4.80;;
12869;SDS011;6503;48.572;13.460;2024-02-14T05:36:59;6.90;;;4.43;;
12869;SDS011;6503;48.572;13.460;2024-02-14T05:39:26;6.27;;;4.07;;
12869;SDS011;6503;48.572;13.460;2024-02-14T05:41:54;9.57;;;4.93;;
12869;SDS011;6503;48.572;13.460;2024-02-14T05:44:21;9.40;;;4.90;;
12869;SDS011;6503;48.572;13.460;2024-02-14T05:46:48;7.37;;;4.77;;
12869;SDS011;6503;48.572;13.460;2024-02-14T05:49:18;7.90;;;5.10;;
12869;SDS011;6503;48.572;13.460;2024-02-14T05:51:46;8.77;;;4.67;;
12869;SDS011;6503;48.572;13.460;2024-02-14T05:54:15;5.32;;;4.28;;
12869;SDS011;6503;48.572;13.460;2024-02-14T05:56:43;7.13;;;4.40;;
12869;SDS011;6503;48.572;13.460;2024-02-14T05:59:11;7.07;;;4.68;;
12869;SDS011;6503;48.572;13.460;2024-02-14T06:01:38;7.70;;;5.43;;
12869;SDS011;6503;48.572;13.460;2024-02-14T06:04:06;8.00;;;5.20;;
12869;SDS011;6503;48.572;13.460;2024-02-14T06:06:35;7.83;;;4.80;;
12869;SDS011;6503;48.572;13.460;2024-02-14T06:09:03;6.50;;;4.40;;
12869;SDS011;6503;48.572;13.460;2024-02-14T06:11:35;7.63;;;5.73;;
12869;SDS011;6503;48.572;13.460;2024-02-14T06:14:16;7.68;;;4.93;;
12869;SDS011;6503;48.572;13.460;2024-02-14T06:16:46;9.53;;;6.03;;
12869;SDS011;6503;48.572;13.460;2024-02-14T06:19:13;7.83;;;5.43;;
12869;SDS011;6503;48.572;13.460;2024-02-14T06:21:42;13.47;;;5.10;;
12869;SDS011;6503;48.572;13.460;2024-02-14T06:24:09;7.95;;;5.35;;
12869;SDS011;6503;48.572;13.460;2024-02-14T06:26:38;7.22;;;4.88;;
12869;SDS011;6503;48.572;13.460;2024-02-14T06:29:05;7.17;;;4.47;;
12869;SDS011;6503;48.572;13.460;2024-02-14T06:31:33;9.43;;;4.30;;
12869;SDS011;6503;48.572;13.460;2024-02-14T06:34:00;6.23;;;5.00;;
12869;SDS011;6503;48.572;13.460;2024-02-14T06:36:27;8.47;;;5.60;;
12869;SDS011;6503;48.572;13.460;2024-02-14T06:39:00;6.73;;;5.20;;
12869;SDS011;6503;48.572;13.460;2024-02-14T06:41:27;8.00;;;6.20;;
12869;SDS011;6503;48.572;13.460;2024-02-14T06:50:07;9.30;;;5.57;;
12869;SDS011;6503;48.572;13.460;2024-02-14T06:52:36;7.23;;;5.03;;
12869;SDS011;6503;48.572;13.460;2024-02-14T06:55:08;9.17;;;4.70;;
12869;SDS011;6503;48.572;13.460;2024-02-14T07:01:00;6.70;;;4.90;;
12869;SDS011;6503;48.572;13.460;2024-02-14T07:03:28;9.07;;;5.70;;
12869;SDS011;6503;48.572;13.460;2024-02-14T07:05:55;8.23;;;5.53;;
12869;SDS011;6503;48.572;13.460;2024-02-14T07:08:23;10.30;;;5.83;;
12869;SDS011;6503;48.572;13.460;2024-02-14T07:10:54;8.33;;;5.40;;
12869;SDS011;6503;48.572;13.460;2024-02-14T07:15:51;10.88;;;4.97;;
12869;SDS011;6503;48.572;13.460;2024-02-14T07:24:04;7.67;;;5.27;;
12869;SDS011;6503;48.572;13.460;2024-02-14T07:26:42;9.93;;;5.70;;
12869;SDS011;6503;48.572;13.460;2024-02-14T07:29:18;6.40;;;4.68;;
12869;SDS011;6503;48.572;13.460;2024-02-14T07:31:46;9.37;;;5.40;;
12869;SDS011;6503;48.572;13.460;2024-02-14T07:34:13;10.83;;;6.00;;
12869;SDS011;6503;48.572;13.460;2024-02-14T07:36:40;8.37;;;5.70;;
12869;SDS011;6503;48.572;13.460;2024-02-14T07:39:11;12.77;;;6.27;;
12869;SDS011;6503;48.572;13.460;2024-02-14T07:44:42;7.33;;;5.27;;
12869;SDS011;6503;48.572;13.460;2024-02-14T07:47:09;7.55;;;5.53;;
12869;SDS011;6503;48.572;13.460;2024-02-14T07:49:38;9.10;;;5.83;;
12869;SDS011;6503;48.572;13.460;2024-02-14T07:52:20;7.07;;;4.80;;
12869;SDS011;6503;48.572;13.460;2024-02-14T07:54:51;9.37;;;6.07;;
12869;SDS011;6503;48.572;13.460;2024-02-14T07:57:19;7.67;;;5.33;;
12869;SDS011;6503;48.572;13.460;2024-02-14T07:59:49;9.93;;;5.38;;
12869;SDS011;6503;48.572;13.460;2024-02-14T08:02:17;8.73;;;5.60;;
12869;SDS011;6503;48.572;13.460;2024-02-14T08:04:45;9.90;;;5.40;;
12869;SDS011;6503;48.572;13.460;2024-02-14T08:07:13;6.40;;;5.40;;
12869;SDS011;6503;48.572;13.460;2024-02-14T08:09:41;7.45;;;5.38;;
12869;SDS011;6503;48.572;13.460;2024-02-14T08:12:08;7.50;;;5.43;;
12869;SDS011;6503;48.572;13.460;2024-02-14T08:14:35;11.13;;;5.47;;
12869;SDS011;6503;48.572;13.460;2024-02-14T08:17:04;10.17;;;5.40;;
12869;SDS011;6503;48.572;13.460;2024-02-14T08:19:31;8.38;;;5.80;;
12869;SDS011;6503;48.572;13.460;2024-02-14T08:21:59;10.73;;;6.00;;
12869;SDS011;6503;48.572;13.460;2024-02-14T08:24:27;13.53;;;6.30;;
12869;SDS011;6503;48.572;13.460;2024-02-14T08:26:56;7.90;;;5.57;;
12869;SDS011;6503;48.572;13.460;2024-02-14T08:29:23;7.60;;;5.57;;
12869;SDS011;6503;48.572;13.460;2024-02-14T08:31:53;7.10;;;5.28;;
12869;SDS011;6503;48.572;13.460;2024-02-14T08:34:22;7.03;;;5.43;;
12869;SDS011;6503;48.572;13.460;2024-02-14T08:36:50;9.90;;;6.50;;
12869;SDS011;6503;48.572;13.460;2024-02-14T08:39:18;10.80;;;5.87;;
12869;SDS011;6503;48.572;13.460;2024-02-14T08:41:45;6.87;;;5.80;;
12869;SDS011;6503;48.572;13.460;2024-02-14T08:44:14;7.70;;;5.50;;
12869;SDS011;6503;48.572;13.460;2024-02-14T08:46:40;8.80;;;5.33;;
12869;SDS011;6503;48.572;13.460;2024-02-14T08:49:09;9.97;;;6.00;;
12869;SDS011;6503;48.572;13.460;2024-02-14T08:51:43;8.17;;;5.87;;
12869;SDS011;6503;48.572;13.460;2024-02-14T08:54:11;7.97;;;5.23;;
12869;SDS011;6503;48.572;13.460;2024-02-14T08:56:42;9.50;;;5.53;;
12869;SDS011;6503;48.572;13.460;2024-02-14T08:59:10;10.98;;;5.97;;
12869;SDS011;6503;48.572;13.460;2024-02-14T09:01:38;12.45;;;6.07;;
12869;SDS011;6503;48.572;13.460;2024-02-14T09:04:06;7.95;;;5.90;;
12869;SDS011;6503;48.572;13.460;2024-02-14T09:09:05;9.77;;;5.40;;
12869;SDS011;6503;48.572;13.460;2024-02-14T09:11:35;10.05;;;5.50;;
12869;SDS011;6503;48.572;13.460;2024-02-14T09:14:06;6.70;;;5.40;;
12869;SDS011;6503;48.572;13.460;2024-02-14T09:16:35;7.60;;;5.53;;
12869;SDS011;6503;48.572;13.460;2024-02-14T09:19:03;9.40;;;5.32;;
12869;SDS011;6503;48.572;13.460;2024-02-14T09:27:51;13.27;;;6.38;;
12869;SDS011;6503;48.572;13.460;2024-02-14T09:30:20;12.43;;;5.30;;
12869;SDS011;6503;48.572;13.460;2024-02-14T09:32:47;10.95;;;6.75;;
12869;SDS011;6503;48.572;13.460;2024-02-14T09:38:18;8.32;;;5.78;;
12869;SDS011;6503;48.572;13.460;2024-02-14T09:40:48;7.32;;;4.80;;
12869;SDS011;6503;48.572;13.460;2024-02-14T09:43:19;9.70;;;5.93;;
12869;SDS011;6503;48.572;13.460;2024-02-14T09:45:49;10.07;;;5.55;;
12869;SDS011;6503;48.572;13.460;2024-02-14T09:48:19;13.02;;;5.10;;
12869;SDS011;6503;48.572;13.460;2024-02-14T09:50:48;7.35;;;5.50;;
12869;SDS011;6503;48.572;13.460;2024-02-14T09:53:17;9.00;;;5.57;;
12869;SDS011;6503;48.572;13.460;2024-02-14T09:55:45;10.43;;;6.20;;
12869;SDS011;6503;48.572;13.460;2024-02-14T09:58:14;9.70;;;5.75;;
12869;SDS011;6503;48.572;13.460;2024-02-14T10:00:43;7.65;;;5.50;;
12869;SDS011;6503;48.572;13.460;2024-02-14T10:03:11;9.02;;;5.28;;
12869;SDS011;6503;48.572;13.460;2024-02-14T10:05:38;13.02;;;5.65;;
12869;SDS011;6503;48.572;13.460;2024-02-14T10:08:06;8.57;;;4.90;;
12869;SDS011;6503;48.572;13.460;2024-02-14T10:10:34;12.57;;;5.30;;
12869;SDS011;6503;48.572;13.460;2024-02-14T10:13:03;10.88;;;4.60;;
12869;SDS011;6503;48.572;13.460;2024-02-14T10:15:30;6.25;;;3.97;;
12869;SDS011;6503;48.572;13.460;2024-02-14T10:18:02;8.05;;;5.28;;
12869;SDS011;6503;48.572;13.460;2024-02-14T10:20:30;6.18;;;4.95;;
12869;SDS011;6503;48.572;13.460;2024-02-14T10:23:00;6.53;;;3.88;;
12869;SDS011;6503;48.572;13.460;2024-02-14T10:25:31;7.35;;;4.55;;
12869;SDS011;6503;48.572;13.460;2024-02-14T10:28:02;6.93;;;4.35;;
12869;SDS011;6503;48.572;13.460;2024-02-14T10:30:39;6.53;;;4.40;;
12869;SDS011;6503;48.572;13.460;2024-02-14T10:33:09;6.70;;;3.97;;
12869;SDS011;6503;48.572;13.460;2024-02-14T10:35:37;6.53;;;4.38;;
12869;SDS011;6503;48.572;13.460;2024-02-14T10:38:08;6.22;;;4.47;;
12869;SDS011;6503;48.572;13.460;2024-02-14T10:41:02;8.35;;;3.92;;
12869;SDS011;6503;48.572;13.460;2024-02-14T10:43:30;6.85;;;3.45;;
12869;SDS011;6503;48.572;13.460;2024-02-14T10:45:59;4.20;;;3.58;;
12869;SDS011;6503;48.572;13.460;2024-02-14T10:48:29;4.65;;;3.50;;
12869;SDS011;6503;48.572;13.460;2024-02-14T10:50:59;7.80;;;3.88;;
12869;SDS011;6503;48.572;13.460;2024-02-14T10:53:30;5.68;;;3.38;;
12869;SDS011;6503;48.572;13.460;2024-02-14T10:56:17;6.63;;;4.00;;
12869;SDS011;6503;48.572;13.460;2024-02-14T10:58:45;9.55;;;4.47;;
12869;SDS011;6503;48.572;13.460;2024-02-14T11:01:13;6.75;;;3.78;;
12869;SDS011;6503;48.572;13.460;2024-02-14T11:03:43;7.38;;;3.28;;
12869;SDS011;6503;48.572;13.460;2024-02-14T11:06:15;10.93;;;4.43;;
12869;SDS011;6503;48.572;13.460;2024-02-14T11:11:43;5.53;;;3.08;;
12869;SDS011;6503;48.572;13.460;2024-02-14T11:14:14;3.92;;;3.13;;
12869;SDS011;6503;48.572;13.460;2024-02-14T11:16:44;8.10;;;3.00;;
12869;SDS011;6503;48.572;13.460;2024-02-14T11:19:13;5.35;;;3.10;;
12869;SDS011;6503;48.572;13.460;2024-02-14T11:21:47;6.90;;;3.33;;
12869;SDS011;6503;48.572;13.460;2024-02-14T11:24:16;8.23;;;3.13;;
12869;SDS011;6503;48.572;13.460;2024-02-14T11:26:47;10.27;;;3.17;;
12869;SDS011;6503;48.572;13.460;2024-02-14T11:29:16;6.20;;;3.25;;
12869;SDS011;6503;48.572;13.460;2024-02-14T11:31:44;5.40;;;2.92;;
12869;SDS011;6503;48.572;13.460;2024-02-14T11:34:14;4.35;;;3.22;;
12869;SDS011;6503;48.572;13.460;2024-02-14T11:36:42;5.30;;;2.90;;
12869;SDS011;6503;48.572;13.460;2024-02-14T11:39:10;7.00;;;3.40;;
12869;SDS011;6503;48.572;13.460;2024-02-14T11:41:39;5.22;;;3.45;;
12869;SDS011;6503;48.572;13.460;2024-02-14T11:47:18;4.53;;;2.38;;
12869;SDS011;6503;48.572;13.460;2024-02-14T11:49:48;4.70;;;2.90;;
12869;SDS011;6503;48.572;13.460;2024-02-14T11:52:42;7.07;;;3.20;;
12869;SDS011;6503;48.572;13.460;2024-02-14T11:55:12;5.05;;;2.90;;
12869;SDS011;6503;48.572;13.460;2024-02-14T11:58:02;5.13;;;2.53;;
12869;SDS011;6503;48.572;13.460;2024-02-14T12:03:56;5.78;;;2.38;;
12869;SDS011;6503;48.572;13.460;2024-02-14T12:24:38;6.97;;;2.85;;
12869;SDS011;6503;48.572;13.460;2024-02-14T12:27:07;5.90;;;2.85;;
12869;SDS011;6503;48.572;13.460;2024-02-14T12:29:35;5.97;;;2.78;;
12869;SDS011;6503;48.572;13.460;2024-02-14T12:32:10;6.18;;;2.85;;
12869;SDS011;6503;48.572;13.460;2024-02-14T12:37:58;4.80;;;2.38;;
12869;SDS011;6503;48.572;13.460;2024-02-14T12:43:44;5.03;;;2.22;;
12869;SDS011;6503;48.572;13.460;2024-02-14T12:46:14;3.85;;;2.30;;
12869;SDS011;6503;48.572;13.460;2024-02-14T12:48:43;3.03;;;1.90;;
12869;SDS011;6503;48.572;13.460;2024-02-14T12:51:11;5.30;;;2.88;;
12869;SDS011;6503;48.572;13.460;2024-02-14T12:53:38;4.72;;;2.67;;
12869;SDS011;6503;48.572;13.460;2024-02-14T12:56:43;3.70;;;2.15;;
12869;SDS011;6503;48.572;13.460;2024-02-14T13:02:20;7.90;;;3.17;;
12869;SDS011;6503;48.572;13.460;2024-02-14T13:04:50;4.30;;;2.63;;
12869;SDS011;6503;48.572;13.460;2024-02-14T13:07:17;4.43;;;2.80;;
12869;SDS011;6503;48.572;13.460;2024-02-14T13:10:29;5.13;;;3.13;;
12869;SDS011;6503;48.572;13.460;2024-02-14T13:12:56;5.45;;;2.85;;
12869;SDS011;6503;48.572;13.460;2024-02-14T13:15:35;3.92;;;2.30;;
12869;SDS011;6503;48.572;13.460;2024-02-14T13:24:03;8.45;;;2.30;;
12869;SDS011;6503;48.572;13.460;2024-02-14T13:29:00;6.13;;;2.40;;
12869;SDS011;6503;48.572;13.460;2024-02-14T13:31:58;4.40;;;2.35;;
12869;SDS011;6503;48.572;13.460;2024-02-14T13:34:27;6.15;;;2.70;;
12869;SDS011;6503;48.572;13.460;2024-02-14T13:36:55;6.05;;;3.05;;
12869;SDS011;6503;48.572;13.460;2024-02-14T13:39:33;8.88;;;2.08;;
12869;SDS011;6503;48.572;13.460;2024-02-14T13:42:03;7.18;;;2.90;;
12869;SDS011;6503;48.572;13.460;2024-02-14T13:44:31;4.50;;;2.55;;
12869;SDS011;6503;48.572;13.460;2024-02-14T13:46:59;5.25;;;2.67;;
12869;SDS011;6503;48.572;13.460;2024-02-14T13:49:41;6.82;;;2.35;;
12869;SDS011;6503;48.572;13.460;2024-02-14T13:52:23;5.93;;;2.60;;
12869;SDS011;6503;48.572;13.460;2024-02-14T13:57:51;3.80;;;2.05;;
12869;SDS011;6503;48.572;13.460;2024-02-14T14:00:26;5.57;;;2.30;;
12869;SDS011;6503;48.572;13.460;2024-02-14T14:03:00;4.43;;;2.83;;
12869;SDS011;6503;48.572;13.460;2024-02-14T14:05:42;7.97;;;2.08;;
12869;SDS011;6503;48.572;13.460;2024-02-14T14:08:09;3.90;;;2.20;;
12869;SDS011;6503;48.572;13.460;2024-02-14T14:10:52;4.95;;;2.50;;
12869;SDS011;6503;48.572;13.460;2024-02-14T14:13:24;6.95;;;2.25;;
12869;SDS011;6503;48.572;13.460;2024-02-14T14:15:54;6.88;;;2.20;;
12869;SDS011;6503;48.572;13.460;2024-02-14T14:18:30;9.82;;;2.92;;
12869;SDS011;6503;48.572;13.460;2024-02-14T14:20:58;4.28;;;2.03;;
12869;SDS011;6503;48.572;13.460;2024-02-14T14:26:18;5.53;;;2.20;;
12869;SDS011;6503;48.572;13.460;2024-02-14T14:28:54;3.72;;;2.20;;
12869;SDS011;6503;48.572;13.460;2024-02-14T14:34:23;7.72;;;2.50;;
12869;SDS011;6503;48.572;13.460;2024-02-14T14:36:52;6.55;;;2.15;;
12869;SDS011;6503;48.572;13.460;2024-02-14T14:39:19;6.78;;;2.30;;
12869;SDS011;6503;48.572;13.460;2024-02-14T14:41:55;12.93;;;2.53;;
12869;SDS011;6503;48.572;13.460;2024-02-14T14:44:46;4.25;;;2.00;;
12869;SDS011;6503;48.572;13.460;2024-02-14T14:47:14;4.93;;;2.72;;
12869;SDS011;6503;48.572;13.460;2024-02-14T14:49:41;5.07;;;2.15;;
12869;SDS011;6503;48.572;13.460;2024-02-14T14:54:59;3.75;;;2.03;;
12869;SDS011;6503;48.572;13.460;2024-02-14T14:57:27;5.38;;;2.50;;
12869;SDS011;6503;48.572;13.460;2024-02-14T15:03:05;3.75;;;1.80;;
12869;SDS011;6503;48.572;13.460;2024-02-14T15:05:36;5.40;;;2.35;;
12869;SDS011;6503;48.572;13.460;2024-02-14T15:08:04;7.00;;;2.05;;
12869;SDS011;6503;48.572;13.460;2024-02-14T15:10:35;6.95;;;2.65;;
12869;SDS011;6503;48.572;13.460;2024-02-14T15:13:04;7.60;;;1.90;;
12869;SDS011;6503;48.572;13.460;2024-02-14T15:15:33;5.30;;;2.60;;
12869;SDS011;6503;48.572;13.460;2024-02-14T15:18:16;7.63;;;2.47;;
12869;SDS011;6503;48.572;13.460;2024-02-14T15:20:50;5.07;;;2.35;;
12869;SDS011;6503;48.572;13.460;2024-02-14T15:23:22;5.75;;;2.25;;
12869;SDS011;6503;48.572;13.460;2024-02-14T15:26:11;4.60;;;2.58;;
12869;SDS011;6503;48.572;13.460;2024-02-14T15:28:42;9.23;;;2.63;;
12869;SDS011;6503;48.572;13.460;2024-02-14T15:31:22;4.35;;;2.15;;
12869;SDS011;6503;48.572;13.460;2024-02-14T15:34:09;4.82;;;2.35;;
12869;SDS011;6503;48.572;13.460;2024-02-14T15:36:43;5.80;;;2.20;;
12869;SDS011;6503;48.572;13.460;2024-02-14T15:39:16;7.60;;;2.53;;
12869;SDS011;6503;48.572;13.460;2024-02-14T15:41:44;5.18;;;2.70;;
12869;SDS011;6503;48.572;13.460;2024-02-14T15:44:11;5.72;;;2.25;;
12869;SDS011;6503;48.572;13.460;2024-02-14T15:46:42;3.60;;;2.10;;
12869;SDS011;6503;48.572;13.460;2024-02-14T15:49:19;4.63;;;2.90;;
12869;SDS011;6503;48.572;13.460;2024-02-14T15:51:47;6.00;;;2.20;;
12869;SDS011;6503;48.572;13.460;2024-02-14T15:54:17;3.92;;;2.03;;
12869;SDS011;6503;48.572;13.460;2024-02-14T15:59:52;5.05;;;2.80;;
12869;SDS011;6503;48.572;13.460;2024-02-14T16:02:19;6.13;;;2.58;;
12869;SDS011;6503;48.572;13.460;2024-02-14T16:04:50;9.27;;;2.75;;
12869;SDS011;6503;48.572;13.460;2024-02-14T16:07:18;9.13;;;3.53;;
12869;SDS011;6503;48.572;13.460;2024-02-14T16:09:45;6.90;;;2.60;;
12869;SDS011;6503;48.572;13.460;2024-02-14T16:12:12;4.10;;;2.50;;
12869;SDS011;6503;48.572;13.460;2024-02-14T16:14:46;4.47;;;2.95;;
12869;SDS011;6503;48.572;13.460;2024-02-14T16:17:15;4.63;;;3.00;;
12869;SDS011;6503;48.572;13.460;2024-02-14T16:19:43;5.55;;;3.15;;
12869;SDS011;6503;48.572;13.460;2024-02-14T16:24:45;7.22;;;3.33;;
12869;SDS011;6503;48.572;13.460;2024-02-14T16:27:14;5.82;;;2.80;;
12869;SDS011;6503;48.572;13.460;2024-02-14T16:29:42;7.18;;;3.60;;
12869;SDS011;6503;48.572;13.460;2024-02-14T16:32:09;5.32;;;2.80;;
12869;SDS011;6503;48.572;13.460;2024-02-14T16:34:49;8.52;;;3.63;;
12869;SDS011;6503;48.572;13.460;2024-02-14T16:37:18;5.28;;;3.53;;
12869;SDS011;6503;48.572;13.460;2024-02-14T16:39:47;9.05;;;3.83;;
12869;SDS011;6503;48.572;13.460;2024-02-14T16:44:43;11.65;;;3.42;;
12869;SDS011;6503;48.572;13.460;2024-02-14T16:47:10;10.50;;;3.28;;
12869;SDS011;6503;48.572;13.460;2024-02-14T16:49:38;11.35;;;6.30;;
12869;SDS011;6503;48.572;13.460;2024-02-14T16:54:36;12.95;;;3.47;;